Time;durP1;ratioP1;P1;durP2;ratioP2;P2;SDS_P1;SDS_P2;PMS_P1;PMS_P2;Temp;Humidity;BMP_temperature;BMP_pressure;BME280_temperature;BME280_humidity;BME280_pressure;Samples;Min_cycle;Max_cycle;Signal;HPM_P1;HPM_P2
2022/03/24 00:01:55;;;;;;;91.95;60.13;;;;;;;;;;5105712;28;20139;-64
2022/03/24 00:04:22;;;;;;;89.75;59.90;;;;;;;;;;5104372;28;20488;-65
2022/03/24 00:06:48;;;;;;;86.40;56.05;;;;;;;;;;5105600;28;20058;-66
2022/03/24 00:09:14;;;;;;;88.50;57.42;;;;;;;;;;5105379;28;20095;-65
2022/03/24 00:11:40;;;;;;;84.38;55.00;;;;;;;;;;5105229;28;20652;-66
2022/03/24 00:14:06;;;;;;;91.47;57.35;;;;;;;;;;5108521;28;20052;-66
2022/03/24 00:16:33;;;;;;;90.75;57.70;;;;;;;;;;5125931;28;20044;-66
2022/03/24 00:18:59;;;;;;;89.43;59.17;;;;;;;;;;5125917;28;20063;-67
2022/03/24 00:21:26;;;;;;;92.13;57.55;;;;;;;;;;5124513;28;20044;-66
2022/03/24 00:23:52;;;;;;;89.25;58.45;;;;;;;;;;5125993;28;20050;-67
2022/03/24 00:26:18;;;;;;;88.35;56.58;;;;;;;;;;5125615;28;20071;-66
2022/03/24 00:28:44;;;;;;;96.80;58.47;;;;;;;;;;5120580;28;20044;-66
2022/03/24 00:31:11;;;;;;;97.00;61.70;;;;;;;;;;5103067;28;20108;-65
2022/03/24 00:33:38;;;;;;;94.35;58.63;;;;;;;;;;5104311;28;20100;-67
2022/03/24 00:36:10;;;;;;;99.88;60.92;;;;;;;;;;5104745;28;20048;-66
2022/03/24 00:38:36;;;;;;;93.53;59.33;;;;;;;;;;5105228;28;20106;-66
2022/03/24 00:41:02;;;;;;;88.65;57.17;;;;;;;;;;5104896;28;20068;-65
2022/03/24 00:43:29;;;;;;;97.78;61.92;;;;;;;;;;5105381;28;20046;-65
2022/03/24 00:45:55;;;;;;;100.38;63.35;;;;;;;;;;5104565;28;20500;-66
2022/03/24 00:48:23;;;;;;;103.22;63.35;;;;;;;;;;5103367;28;20052;-66
2022/03/24 00:50:49;;;;;;;95.20;59.92;;;;;;;;;;5084704;28;20154;-65
2022/03/24 00:53:16;;;;;;;90.10;58.30;;;;;;;;;;5104627;28;20083;-66
2022/03/24 00:55:45;;;;;;;99.97;63.57;;;;;;;;;;5105070;28;20466;-66
2022/03/24 00:58:13;;;;;;;101.15;62.40;;;;;;;;;;5104592;28;20058;-66
2022/03/24 01:00:41;;;;;;;100.85;61.45;;;;;;;;;;5102929;28;20056;-66
2022/03/24 01:03:07;;;;;;;105.28;63.90;;;;;;;;;;5103923;28;20473;-65
2022/03/24 01:05:37;;;;;;;104.15;60.53;;;;;;;;;;5104836;28;20047;-66
2022/03/24 01:08:05;;;;;;;93.05;56.60;;;;;;;;;;5104317;28;20044;-66
2022/03/24 01:10:32;;;;;;;101.57;60.10;;;;;;;;;;5104868;28;20044;-66
2022/03/24 01:12:59;;;;;;;108.88;61.85;;;;;;;;;;5104327;28;20043;-65
2022/03/24 01:15:26;;;;;;;111.35;65.65;;;;;;;;;;5104627;28;20092;-66
2022/03/24 01:17:52;;;;;;;116.18;70.00;;;;;;;;;;5104954;28;20044;-66
2022/03/24 01:20:19;;;;;;;122.93;67.05;;;;;;;;;;5097468;28;20531;-65
2022/03/24 01:22:45;;;;;;;113.70;64.70;;;;;;;;;;5083613;28;20088;-66
2022/03/24 01:25:11;;;;;;;111.93;63.55;;;;;;;;;;5084330;28;20041;-66
2022/03/24 01:27:40;;;;;;;108.25;61.20;;;;;;;;;;5083868;28;20108;-65
2022/03/24 01:30:09;;;;;;;112.97;61.90;;;;;;;;;;5084170;28;20063;-65
2022/03/24 01:32:35;;;;;;;115.63;68.15;;;;;;;;;;5084229;28;20545;-65
2022/03/24 01:35:02;;;;;;;108.25;64.60;;;;;;;;;;5090280;28;20502;-65
2022/03/24 01:37:29;;;;;;;105.28;62.70;;;;;;;;;;5083486;28;20044;-65
2022/03/24 01:39:55;;;;;;;108.45;63.88;;;;;;;;;;5084079;28;20076;-65
2022/03/24 01:42:21;;;;;;;110.95;63.33;;;;;;;;;;5097469;28;20046;-64
2022/03/24 01:44:48;;;;;;;121.47;69.57;;;;;;;;;;5104565;28;20052;-65
2022/03/24 01:47:14;;;;;;;111.47;68.28;;;;;;;;;;5104578;28;20123;-66
2022/03/24 01:49:41;;;;;;;108.22;64.50;;;;;;;;;;5104087;28;20566;-65
2022/03/24 01:52:14;;;;;;;114.82;66.65;;;;;;;;;;5103533;28;20051;-65
2022/03/24 01:54:41;;;;;;;106.20;61.72;;;;;;;;;;5104103;28;20040;-65
2022/03/24 01:57:09;;;;;;;112.07;65.10;;;;;;;;;;5103974;28;20073;-66
2022/03/24 01:59:37;;;;;;;;;;;;;;;;;;5106131;28;20111;-65
2022/03/24 02:02:04;;;;;;;135.93;75.10;;;;;;;;;;5110994;28;19927;-65
2022/03/24 02:04:30;;;;;;;136.27;75.57;;;;;;;;;;5091972;28;20045;-66
2022/03/24 02:06:56;;;;;;;128.90;70.80;;;;;;;;;;5089848;28;20048;-66
2022/03/24 02:09:23;;;;;;;126.30;68.90;;;;;;;;;;5090547;28;20127;-67
2022/03/24 02:11:49;;;;;;;117.57;66.55;;;;;;;;;;5103357;28;20051;-66
2022/03/24 02:14:15;;;;;;;124.85;68.35;;;;;;;;;;5110921;28;20044;-65
2022/03/24 02:16:42;;;;;;;130.85;69.28;;;;;;;;;;5110931;28;20097;-66
2022/03/24 02:19:16;;;;;;;141.60;71.75;;;;;;;;;;5110706;28;20062;-66
2022/03/24 02:21:42;;;;;;;134.85;70.68;;;;;;;;;;5109980;28;20094;-66
2022/03/24 02:24:09;;;;;;;141.57;72.97;;;;;;;;;;5092916;28;20511;-66
2022/03/24 02:26:36;;;;;;;144.98;71.70;;;;;;;;;;5089958;28;20040;-65
2022/03/24 02:29:06;;;;;;;144.90;73.75;;;;;;;;;;5090251;28;20471;-65
2022/03/24 02:31:33;;;;;;;148.07;73.93;;;;;;;;;;5100517;28;20056;-64
2022/03/24 02:36:46;;;;;;;148.80;77.55;;;;;;;;;;5109911;28;20066;-65
2022/03/24 02:39:12;;;;;;;151.20;78.28;;;;;;;;;;5109229;28;20052;-66
2022/03/24 02:41:46;;;;;;;137.73;70.32;;;;;;;;;;5110123;28;20036;-65
2022/03/24 02:44:14;;;;;;;152.48;77.80;;;;;;;;;;5090984;28;20059;-65
2022/03/24 02:46:51;;;;;;;142.50;73.18;;;;;;;;;;5090253;28;20475;-64
2022/03/24 02:49:24;;;;;;;165.27;80.95;;;;;;;;;;5090273;28;20048;-66
2022/03/24 02:51:51;;;;;;;170.20;84.70;;;;;;;;;;5089346;28;20041;-66
2022/03/24 02:54:18;;;;;;;158.47;78.73;;;;;;;;;;5100591;28;20139;-66
2022/03/24 02:56:44;;;;;;;164.52;81.43;;;;;;;;;;5110022;28;20301;-65
2022/03/24 02:59:12;;;;;;;156.43;78.45;;;;;;;;;;5110194;28;20044;-66
2022/03/24 03:01:47;;;;;;;139.10;71.13;;;;;;;;;;5109793;28;20428;-65
2022/03/24 03:04:14;;;;;;;155.40;76.68;;;;;;;;;;5090312;28;20048;-65
2022/03/24 03:06:40;;;;;;;160.60;81.60;;;;;;;;;;5089362;28;20040;-66
2022/03/24 03:09:07;;;;;;;157.45;76.30;;;;;;;;;;5089941;28;20040;-66
2022/03/24 03:11:33;;;;;;;162.45;77.80;;;;;;;;;;5086628;28;20072;-65
2022/03/24 03:14:00;;;;;;;207.73;93.97;;;;;;;;;;5091954;28;20039;-66
2022/03/24 03:16:26;;;;;;;205.40;91.63;;;;;;;;;;5106826;28;20115;-65
2022/03/24 03:18:53;;;;;;;202.15;90.68;;;;;;;;;;5107409;28;20122;-66
2022/03/24 03:21:19;;;;;;;187.57;88.30;;;;;;;;;;5106037;28;20081;-65
2022/03/24 03:23:46;;;;;;;174.40;82.88;;;;;;;;;;5086977;28;20052;-66
2022/03/24 03:26:15;;;;;;;166.18;84.45;;;;;;;;;;5086218;28;20095;-64
2022/03/24 03:28:41;;;;;;;176.90;83.68;;;;;;;;;;5086502;28;20051;-65
2022/03/24 03:31:07;;;;;;;164.25;83.53;;;;;;;;;;5086199;28;20055;-65
2022/03/24 03:33:34;;;;;;;175.02;86.28;;;;;;;;;;5086729;28;20045;-66
2022/03/24 03:36:00;;;;;;;156.23;80.75;;;;;;;;;;5085728;28;20072;-66
2022/03/24 03:38:26;;;;;;;175.18;87.13;;;;;;;;;;5086223;28;20128;-65
2022/03/24 03:40:53;;;;;;;167.90;85.13;;;;;;;;;;5086254;28;20051;-65
2022/03/24 03:43:19;;;;;;;175.98;85.90;;;;;;;;;;5089812;28;20071;-65
2022/03/24 03:45:45;;;;;;;184.77;86.78;;;;;;;;;;5086159;28;20331;-65
2022/03/24 03:48:12;;;;;;;188.60;91.72;;;;;;;;;;5086514;28;20051;-65
2022/03/24 03:50:41;;;;;;;193.00;90.57;;;;;;;;;;5085994;28;20143;-65
2022/03/24 03:53:11;;;;;;;188.52;89.97;;;;;;;;;;5085418;28;20044;-65
2022/03/24 03:55:37;;;;;;;211.25;95.07;;;;;;;;;;5087058;28;20053;-65
2022/03/24 03:58:04;;;;;;;205.35;93.63;;;;;;;;;;5085594;28;20051;-66
2022/03/24 04:03:15;;;;;;;212.57;93.00;;;;;;;;;;5104946;28;20130;-66
2022/03/24 04:05:43;;;;;;;183.30;85.80;;;;;;;;;;5105960;28;20048;-66
2022/03/24 04:08:10;;;;;;;199.55;89.93;;;;;;;;;;5105598;28;20052;-65
2022/03/24 04:10:37;;;;;;;219.68;94.65;;;;;;;;;;5106071;28;20101;-66
2022/03/24 04:13:04;;;;;;;185.05;90.57;;;;;;;;;;5087988;28;20064;-67
2022/03/24 04:15:31;;;;;;;209.52;97.20;;;;;;;;;;5085603;28;20041;-65
2022/03/24 04:17:57;;;;;;;211.27;96.35;;;;;;;;;;5085599;28;20100;-66
2022/03/24 04:20:23;;;;;;;230.73;100.93;;;;;;;;;;5085408;28;20091;-67
2022/03/24 04:22:50;;;;;;;206.52;96.60;;;;;;;;;;5099014;28;20044;-65
2022/03/24 04:25:23;;;;;;;210.57;95.68;;;;;;;;;;5105766;28;20146;-66
2022/03/24 04:27:50;;;;;;;174.63;87.90;;;;;;;;;;5105213;28;20135;-65
2022/03/24 04:30:21;;;;;;;181.98;90.90;;;;;;;;;;5105703;28;20048;-65
2022/03/24 04:32:48;;;;;;;164.48;85.18;;;;;;;;;;5088987;28;20044;-66
2022/03/24 04:35:15;;;;;;;171.05;85.75;;;;;;;;;;5085309;28;20106;-66
2022/03/24 04:37:41;;;;;;;172.55;86.22;;;;;;;;;;5084561;28;20104;-66
2022/03/24 04:40:10;;;;;;;176.93;88.22;;;;;;;;;;5084964;28;20041;-65
2022/03/24 04:42:37;;;;;;;171.68;83.50;;;;;;;;;;5098534;28;20040;-66
2022/03/24 04:45:03;;;;;;;151.48;79.70;;;;;;;;;;5105253;28;20051;-65
2022/03/24 04:47:29;;;;;;;168.02;84.60;;;;;;;;;;5097480;28;20575;-65
2022/03/24 04:49:55;;;;;;;187.65;84.53;;;;;;;;;;5105112;28;20096;-66
2022/03/24 04:52:22;;;;;;;170.77;85.25;;;;;;;;;;5104246;28;20050;-66
2022/03/24 04:54:48;;;;;;;188.53;89.77;;;;;;;;;;5105019;28;20420;-65
2022/03/24 04:57:15;;;;;;;168.68;85.13;;;;;;;;;;5097058;28;20049;-65
2022/03/24 04:59:42;;;;;;;176.68;82.63;;;;;;;;;;5092353;28;20056;-65
2022/03/24 05:02:15;;;;;;;176.40;85.47;;;;;;;;;;5105249;28;20054;-65
2022/03/24 05:04:42;;;;;;;177.98;87.75;;;;;;;;;;5105043;28;20415;-65
2022/03/24 05:07:11;;;;;;;171.45;83.50;;;;;;;;;;5094709;28;20044;-65
2022/03/24 05:09:38;;;;;;;193.75;86.15;;;;;;;;;;5084424;28;20056;-65
2022/03/24 05:12:04;;;;;;;195.20;88.57;;;;;;;;;;5084211;28;20047;-65
2022/03/24 05:14:31;;;;;;;177.55;86.93;;;;;;;;;;5084370;28;20079;-65
2022/03/24 05:16:58;;;;;;;208.02;95.25;;;;;;;;;;5091959;28;20513;-65
2022/03/24 05:19:24;;;;;;;200.52;95.30;;;;;;;;;;5104454;28;20130;-65
2022/03/24 05:21:50;;;;;;;208.40;95.35;;;;;;;;;;5103702;28;20036;-65
2022/03/24 05:24:17;;;;;;;223.07;101.32;;;;;;;;;;5104442;28;20112;-65
2022/03/24 05:26:43;;;;;;;227.30;103.75;;;;;;;;;;5095565;28;20052;-65
2022/03/24 05:29:09;;;;;;;253.95;106.30;;;;;;;;;;5084126;28;20048;-66
2022/03/24 05:31:36;;;;;;;220.82;98.18;;;;;;;;;;5084009;28;20391;-66
2022/03/24 05:34:02;;;;;;;217.18;96.20;;;;;;;;;;5083619;28;20070;-66
2022/03/24 05:36:29;;;;;;;257.60;102.43;;;;;;;;;;5088797;28;20048;-64
2022/03/24 05:38:55;;;;;;;271.83;102.25;;;;;;;;;;5103178;28;20134;-64
2022/03/24 05:41:21;;;;;;;250.23;101.80;;;;;;;;;;5103849;28;20039;-65
2022/03/24 05:44:02;;;;;;;271.85;105.63;;;;;;;;;;5104617;28;20104;-65
2022/03/24 05:46:32;;;;;;;229.48;98.65;;;;;;;;;;5096110;28;20269;-65
2022/03/24 05:48:58;;;;;;;285.83;110.07;;;;;;;;;;5084095;28;20037;-65
2022/03/24 05:51:25;;;;;;;229.27;103.82;;;;;;;;;;5101722;28;20225;-64
2022/03/24 05:53:51;;;;;;;218.32;95.13;;;;;;;;;;5104076;28;20487;-65
2022/03/24 05:56:18;;;;;;;235.18;103.10;;;;;;;;;;5097370;28;20044;-64
2022/03/24 05:58:44;;;;;;;222.18;99.70;;;;;;;;;;5084099;28;20048;-64
2022/03/24 06:01:10;;;;;;;221.00;101.35;;;;;;;;;;5083800;28;20049;-65
2022/03/24 06:03:37;;;;;;;219.00;96.22;;;;;;;;;;5083876;28;20128;-65
2022/03/24 06:06:08;;;;;;;210.10;95.43;;;;;;;;;;5086574;28;20040;-66
2022/03/24 06:08:35;;;;;;;203.82;93.85;;;;;;;;;;5104097;28;20052;-65
2022/03/24 06:11:01;;;;;;;196.20;92.20;;;;;;;;;;5103909;28;20058;-65
2022/03/24 06:13:28;;;;;;;181.95;88.53;;;;;;;;;;5103822;28;20051;-65
2022/03/24 06:15:55;;;;;;;183.50;89.47;;;;;;;;;;5101362;28;20097;-66
2022/03/24 06:18:21;;;;;;;205.05;92.10;;;;;;;;;;5083792;28;20049;-65
2022/03/24 06:20:48;;;;;;;225.68;95.10;;;;;;;;;;5083730;28;20041;-65
2022/03/24 06:23:14;;;;;;;207.30;93.35;;;;;;;;;;5082954;28;20072;-65
2022/03/24 06:25:42;;;;;;;243.20;97.03;;;;;;;;;;5084527;28;20109;-65
2022/03/24 06:28:08;;;;;;;193.00;90.03;;;;;;;;;;5083801;28;20041;-65
2022/03/24 06:30:35;;;;;;;178.57;88.90;;;;;;;;;;5083640;28;20041;-66
2022/03/24 06:33:01;;;;;;;150.73;78.53;;;;;;;;;;5083298;28;20059;-66
2022/03/24 06:35:27;;;;;;;131.32;72.45;;;;;;;;;;5083949;28;20045;-65
2022/03/24 06:37:54;;;;;;;137.70;74.10;;;;;;;;;;5098060;28;20499;-66
2022/03/24 06:40:20;;;;;;;131.13;74.50;;;;;;;;;;5102734;28;20047;-66
2022/03/24 06:42:47;;;;;;;132.35;77.22;;;;;;;;;;5108745;28;20047;-66
2022/03/24 06:45:14;;;;;;;136.73;78.70;;;;;;;;;;5117193;28;20079;-66
2022/03/24 06:47:41;;;;;;;138.80;79.65;;;;;;;;;;5098713;28;20036;-65
2022/03/24 06:50:09;;;;;;;119.00;69.13;;;;;;;;;;5103813;28;20214;-65
2022/03/24 06:52:36;;;;;;;124.25;67.68;;;;;;;;;;5100843;28;20048;-65
2022/03/24 06:55:02;;;;;;;128.00;75.28;;;;;;;;;;5094173;28;20036;-65
2022/03/24 06:57:28;;;;;;;124.80;73.53;;;;;;;;;;5093762;28;20577;-67
2022/03/24 06:59:54;;;;;;;119.05;73.63;;;;;;;;;;5115385;28;20063;-65
2022/03/24 07:02:21;;;;;;;122.75;69.93;;;;;;;;;;5097107;28;20055;-67
2022/03/24 07:04:47;;;;;;;123.85;68.88;;;;;;;;;;5111488;28;20040;-65
2022/03/24 07:07:13;;;;;;;103.07;64.40;;;;;;;;;;5100625;28;20096;-66
2022/03/24 07:09:39;;;;;;;102.50;65.40;;;;;;;;;;5111414;28;20113;-66
2022/03/24 07:12:06;;;;;;;104.75;66.30;;;;;;;;;;5107825;28;20099;-65
2022/03/24 07:14:32;;;;;;;103.65;64.07;;;;;;;;;;5119643;28;20075;-65
2022/03/24 07:16:58;;;;;;;101.00;62.45;;;;;;;;;;5110015;27;20115;-65
2022/03/24 07:19:24;;;;;;;92.70;59.50;;;;;;;;;;5110868;28;20429;-66
2022/03/24 07:21:50;;;;;;;99.18;62.13;;;;;;;;;;5104079;28;20047;-66
2022/03/24 07:24:16;;;;;;;89.00;55.75;;;;;;;;;;5124232;28;20134;-65
2022/03/24 07:26:42;;;;;;;74.90;47.47;;;;;;;;;;5112926;28;20048;-65
2022/03/24 07:29:10;;;;;;;73.10;45.97;;;;;;;;;;5098603;28;20162;-66
2022/03/24 07:31:36;;;;;;;79.40;49.30;;;;;;;;;;5097543;28;20052;-66
2022/03/24 07:34:02;;;;;;;79.50;51.47;;;;;;;;;;5095924;28;20265;-65
2022/03/24 07:36:29;;;;;;;70.88;43.08;;;;;;;;;;5090496;28;20150;-65
2022/03/24 07:38:56;;;;;;;80.32;50.70;;;;;;;;;;5091364;28;20056;-66
2022/03/24 07:41:22;;;;;;;77.55;52.10;;;;;;;;;;5102693;28;20057;-65
2022/03/24 07:43:48;;;;;;;86.07;53.20;;;;;;;;;;5096342;28;20497;-66
2022/03/24 07:46:15;;;;;;;84.60;55.95;;;;;;;;;;5087330;28;20040;-65
2022/03/24 07:48:46;;;;;;;81.97;54.17;;;;;;;;;;5091345;28;20052;-65
2022/03/24 07:51:12;;;;;;;89.78;57.85;;;;;;;;;;5092326;28;20076;-66
2022/03/24 07:53:38;;;;;;;96.90;59.40;;;;;;;;;;5096691;28;20100;-66
2022/03/24 07:56:05;;;;;;;91.75;58.80;;;;;;;;;;5095045;28;20040;-65
2022/03/24 07:58:31;;;;;;;86.75;57.30;;;;;;;;;;5098268;28;20040;-66
2022/03/24 08:00:59;;;;;;;85.25;56.47;;;;;;;;;;5102081;28;20531;-66
2022/03/24 08:03:25;;;;;;;;;;;;;;;;;;5094533;28;20044;-66
2022/03/24 08:05:51;;;;;;;87.00;55.90;;;;;;;;;;5095691;28;19928;-66
2022/03/24 08:08:17;;;;;;;91.68;55.63;;;;;;;;;;5099256;28;20091;-66
2022/03/24 08:10:45;;;;;;;87.05;54.40;;;;;;;;;;5098522;28;20075;-66
2022/03/24 08:13:13;;;;;;;87.63;56.90;;;;;;;;;;5100306;28;20055;-65
2022/03/24 08:15:39;;;;;;;83.35;54.80;;;;;;;;;;5100349;28;20040;-64
2022/03/24 08:18:06;;;;;;;92.20;55.20;;;;;;;;;;5098466;28;20055;-65
2022/03/24 08:20:32;;;;;;;76.85;54.42;;;;;;;;;;5096218;28;20110;-65
2022/03/24 08:22:58;;;;;;;85.05;55.05;;;;;;;;;;5092188;28;20044;-65
2022/03/24 08:25:25;;;;;;;82.28;54.38;;;;;;;;;;5095574;28;20039;-65
2022/03/24 08:27:51;;;;;;;80.78;52.03;;;;;;;;;;5097900;28;20044;-64
2022/03/24 08:30:17;;;;;;;81.28;51.70;;;;;;;;;;5100734;28;20051;-63
2022/03/24 08:32:43;;;;;;;78.07;52.88;;;;;;;;;;5100573;28;20048;-65
2022/03/24 08:35:09;;;;;;;78.90;51.20;;;;;;;;;;5098423;28;20035;-63
2022/03/24 08:37:35;;;;;;;75.60;50.83;;;;;;;;;;5095169;28;20041;-65
2022/03/24 08:40:02;;;;;;;75.18;49.13;;;;;;;;;;5100160;28;20398;-66
2022/03/24 08:42:28;;;;;;;79.03;49.75;;;;;;;;;;5090021;28;20040;-66
2022/03/24 08:44:54;;;;;;;69.25;47.05;;;;;;;;;;5104523;28;20058;-66
2022/03/24 08:47:20;;;;;;;69.00;46.90;;;;;;;;;;5096957;28;20111;-65
2022/03/24 08:49:47;;;;;;;73.65;47.35;;;;;;;;;;5096543;28;20601;-66
2022/03/24 08:52:13;;;;;;;65.55;48.05;;;;;;;;;;5099081;28;20408;-64
2022/03/24 08:54:39;;;;;;;67.75;46.22;;;;;;;;;;5094115;28;20503;-64
2022/03/24 08:57:06;;;;;;;68.95;47.72;;;;;;;;;;5106440;28;20508;-65
2022/03/24 08:59:32;;;;;;;69.53;47.35;;;;;;;;;;5097553;28;20127;-65
2022/03/24 09:01:59;;;;;;;69.85;49.17;;;;;;;;;;5090322;28;20052;-66
2022/03/24 09:04:26;;;;;;;74.63;49.75;;;;;;;;;;5093111;28;20054;-65
2022/03/24 09:06:53;;;;;;;67.60;49.25;;;;;;;;;;5097162;28;20044;-65
2022/03/24 09:09:22;;;;;;;67.20;48.43;;;;;;;;;;5092390;28;20124;-64
2022/03/24 09:11:49;;;;;;;73.10;45.58;;;;;;;;;;5099754;28;20040;-66
2022/03/24 09:14:16;;;;;;;68.78;45.60;;;;;;;;;;5098399;28;20043;-65
2022/03/24 09:16:42;;;;;;;66.30;46.25;;;;;;;;;;5100168;28;20075;-65
2022/03/24 09:19:08;;;;;;;65.35;43.47;;;;;;;;;;5086487;28;20051;-66
2022/03/24 09:21:35;;;;;;;64.07;45.53;;;;;;;;;;5092588;28;20099;-64
2022/03/24 09:24:01;;;;;;;64.25;46.00;;;;;;;;;;5097754;28;20032;-64
2022/03/24 09:26:27;;;;;;;66.70;44.13;;;;;;;;;;5098907;28;20075;-66
2022/03/24 09:28:53;;;;;;;64.43;44.35;;;;;;;;;;5098510;28;20048;-66
2022/03/24 09:31:20;;;;;;;66.97;45.05;;;;;;;;;;5094958;28;20450;-66
2022/03/24 09:33:46;;;;;;;66.55;45.85;;;;;;;;;;5102115;28;20037;-66
2022/03/24 09:36:12;;;;;;;76.47;45.95;;;;;;;;;;5094659;28;20043;-66
2022/03/24 09:38:39;;;;;;;61.58;44.72;;;;;;;;;;5097833;28;20048;-66
2022/03/24 09:41:09;;;;;;;68.40;44.53;;;;;;;;;;5099052;28;20048;-65
2022/03/24 09:43:37;;;;;;;64.28;46.58;;;;;;;;;;5095529;28;20037;-65
2022/03/24 09:46:03;;;;;;;69.55;44.42;;;;;;;;;;5097888;28;20040;-65
2022/03/24 09:48:29;;;;;;;72.10;46.63;;;;;;;;;;5095277;28;20036;-65
2022/03/24 09:50:55;;;;;;;70.57;46.92;;;;;;;;;;5091539;28;20051;-65
2022/03/24 09:53:23;;;;;;;67.15;45.47;;;;;;;;;;5101081;28;20036;-66
2022/03/24 09:55:50;;;;;;;64.78;45.47;;;;;;;;;;5105251;28;20115;-66
2022/03/24 09:58:16;;;;;;;66.28;45.67;;;;;;;;;;5097858;28;20040;-65
2022/03/24 10:00:42;;;;;;;66.65;45.60;;;;;;;;;;5098705;28;20056;-67
2022/03/24 10:03:16;;;;;;;68.32;45.53;;;;;;;;;;5090005;28;20049;-67
2022/03/24 10:06:00;;;;;;;66.28;45.92;;;;;;;;;;5100325;28;20056;-67
2022/03/24 10:08:26;;;;;;;60.60;43.53;;;;;;;;;;5102170;28;20048;-67
2022/03/24 10:11:09;;;;;;;62.17;44.85;;;;;;;;;;5093244;28;20048;-66
2022/03/24 10:13:46;;;;;;;66.32;43.60;;;;;;;;;;5095027;28;20040;-67
2022/03/24 10:16:13;;;;;;;64.15;44.92;;;;;;;;;;5088585;28;20056;-66
2022/03/24 10:19:01;;;;;;;66.03;44.88;;;;;;;;;;5094610;28;20051;-66
2022/03/24 10:21:31;;;;;;;61.63;42.65;;;;;;;;;;5094130;28;20132;-66
2022/03/24 10:24:00;;;;;;;64.00;44.50;;;;;;;;;;5091322;28;20043;-66
2022/03/24 10:27:03;;;;;;;59.88;42.35;;;;;;;;;;5094304;28;20048;-67
2022/03/24 10:29:30;;;;;;;65.68;41.47;;;;;;;;;;5083965;28;20083;-66
2022/03/24 10:31:57;;;;;;;64.80;44.60;;;;;;;;;;5083525;28;20060;-64
2022/03/24 10:34:24;;;;;;;;;;;;;;;;;;5084135;28;20036;-65
2022/03/24 10:36:50;;;;;;;61.47;40.85;;;;;;;;;;5082119;28;19916;-66
2022/03/24 10:39:23;;;;;;;56.60;39.22;;;;;;;;;;5076542;28;20122;-66
2022/03/24 10:41:49;;;;;;;58.00;38.45;;;;;;;;;;5075531;28;20037;-64
2022/03/24 10:44:15;;;;;;;53.53;35.92;;;;;;;;;;5083735;28;20137;-64
2022/03/24 10:46:43;;;;;;;57.53;37.65;;;;;;;;;;5082496;28;20083;-64
2022/03/24 10:49:18;;;;;;;51.35;35.03;;;;;;;;;;5083443;28;20056;-64
2022/03/24 10:51:46;;;;;;;49.67;33.03;;;;;;;;;;5082510;28;20048;-64
2022/03/24 10:54:28;;;;;;;49.97;36.72;;;;;;;;;;5077327;28;20046;-64
2022/03/24 10:56:57;;;;;;;50.53;34.63;;;;;;;;;;5081903;28;20044;-65
2022/03/24 10:59:26;;;;;;;57.88;38.67;;;;;;;;;;5082653;28;20120;-66
2022/03/24 11:01:53;;;;;;;53.63;36.03;;;;;;;;;;5082846;28;20089;-64
2022/03/24 11:04:20;;;;;;;48.42;32.03;;;;;;;;;;5083920;28;20056;-64
2022/03/24 11:06:50;;;;;;;38.80;26.63;;;;;;;;;;5092246;28;20127;-65
2022/03/24 11:09:23;;;;;;;48.72;28.00;;;;;;;;;;5096890;28;20040;-65
2022/03/24 11:12:09;;;;;;;51.72;32.95;;;;;;;;;;5101079;28;20073;-65
2022/03/24 11:14:39;;;;;;;48.80;32.55;;;;;;;;;;5098662;28;20402;-64
2022/03/24 11:17:06;;;;;;;49.85;30.83;;;;;;;;;;5107410;28;20032;-64
2022/03/24 11:19:32;;;;;;;45.38;30.30;;;;;;;;;;5097246;28;20071;-63
2022/03/24 11:21:59;;;;;;;47.17;32.55;;;;;;;;;;5103442;28;20063;-63
2022/03/24 11:24:25;;;;;;;49.87;34.30;;;;;;;;;;5087175;28;20036;-63
2022/03/24 11:26:52;;;;;;;51.08;34.28;;;;;;;;;;5099003;28;20560;-64
2022/03/24 11:29:18;;;;;;;55.72;33.85;;;;;;;;;;5097343;28;20137;-65
2022/03/24 11:31:45;;;;;;;59.55;35.60;;;;;;;;;;5095564;28;20040;-65
2022/03/24 11:34:11;;;;;;;59.40;36.47;;;;;;;;;;5101028;28;20109;-65
2022/03/24 11:36:37;;;;;;;48.88;33.90;;;;;;;;;;5108183;28;20075;-65
2022/03/24 11:39:05;;;;;;;53.42;33.47;;;;;;;;;;5096754;28;20072;-65
2022/03/24 11:41:50;;;;;;;50.55;36.35;;;;;;;;;;5102275;28;20044;-64
2022/03/24 11:44:27;;;;;;;50.13;34.03;;;;;;;;;;5093982;28;20056;-64
2022/03/24 11:46:55;;;;;;;48.10;34.17;;;;;;;;;;5105842;28;20095;-65
2022/03/24 11:49:25;;;;;;;48.65;33.45;;;;;;;;;;5098427;28;20048;-65
2022/03/24 11:52:12;;;;;;;46.13;31.65;;;;;;;;;;5099612;28;20049;-64
2022/03/24 11:54:39;;;;;;;49.30;31.55;;;;;;;;;;5086688;28;20059;-63
2022/03/24 11:57:24;;;;;;;47.15;29.67;;;;;;;;;;5088413;28;20048;-63
2022/03/24 11:59:51;;;;;;;40.00;29.58;;;;;;;;;;5089114;28;20060;-63
2022/03/24 12:02:23;;;;;;;39.97;30.02;;;;;;;;;;5118858;28;20048;-63
2022/03/24 12:04:50;;;;;;;42.40;30.25;;;;;;;;;;5105914;28;20055;-63
2022/03/24 12:07:18;;;;;;;36.28;28.92;;;;;;;;;;5105397;28;20040;-62
2022/03/24 12:09:54;;;;;;;39.40;27.77;;;;;;;;;;5105842;28;20051;-63
2022/03/24 12:12:21;;;;;;;36.00;25.60;;;;;;;;;;5092566;28;20108;-62
2022/03/24 12:14:47;;;;;;;43.08;31.63;;;;;;;;;;5105152;28;20085;-62
2022/03/24 12:17:18;;;;;;;42.92;32.78;;;;;;;;;;5106403;28;20087;-62
2022/03/24 12:19:44;;;;;;;42.80;32.50;;;;;;;;;;5098248;28;20044;-62
2022/03/24 12:22:25;;;;;;;40.67;31.75;;;;;;;;;;5084845;28;20097;-62
2022/03/24 12:24:52;;;;;;;39.90;31.25;;;;;;;;;;5085601;28;20048;-62
2022/03/24 12:27:19;;;;;;;36.58;29.35;;;;;;;;;;5084952;28;20119;-63
2022/03/24 12:30:03;;;;;;;39.42;32.80;;;;;;;;;;5093624;28;20050;-63
2022/03/24 12:32:29;;;;;;;40.03;32.92;;;;;;;;;;5094042;28;20044;-63
2022/03/24 12:34:56;;;;;;;44.43;31.87;;;;;;;;;;5100461;28;20048;-63
2022/03/24 12:37:31;;;;;;;41.70;30.02;;;;;;;;;;5097120;28;20423;-62
2022/03/24 12:40:06;;;;;;;36.45;28.92;;;;;;;;;;5101526;28;20054;-62
2022/03/24 12:42:52;;;;;;;39.03;27.83;;;;;;;;;;5090174;28;20040;-62
2022/03/24 12:45:36;;;;;;;39.90;28.88;;;;;;;;;;5088849;28;20190;-62
2022/03/24 12:48:10;;;;;;;32.28;27.80;;;;;;;;;;5095268;28;20039;-62
2022/03/24 12:50:42;;;;;;;38.08;30.58;;;;;;;;;;5095631;28;20127;-62
2022/03/24 12:53:09;;;;;;;35.25;30.08;;;;;;;;;;5093802;28;20163;-62
2022/03/24 12:55:40;;;;;;;38.30;28.45;;;;;;;;;;5093167;28;20178;-62
2022/03/24 12:58:16;;;;;;;36.97;30.75;;;;;;;;;;5101472;28;20040;-62
2022/03/24 13:00:49;;;;;;;39.15;31.42;;;;;;;;;;5087301;28;20476;-62
2022/03/24 13:03:16;;;;;;;42.33;31.55;;;;;;;;;;5091684;28;20048;-62
2022/03/24 13:05:46;;;;;;;40.25;30.23;;;;;;;;;;5099388;28;20104;-62
2022/03/24 13:08:13;;;;;;;38.55;32.17;;;;;;;;;;5094310;28;20040;-62
2022/03/24 13:10:40;;;;;;;;;;;;;;;;;;5091151;28;20059;-62
2022/03/24 13:13:07;;;;;;;39.80;30.85;;;;;;;;;;5086580;28;19920;-62
2022/03/24 13:15:40;;;;;;;39.97;31.85;;;;;;;;;;5105183;28;20093;-62
2022/03/24 13:18:07;;;;;;;36.05;31.63;;;;;;;;;;5092642;28;20037;-64
2022/03/24 13:20:36;;;;;;;37.78;32.38;;;;;;;;;;5092869;28;20036;-63
2022/03/24 13:23:03;;;;;;;40.03;31.63;;;;;;;;;;5101754;28;20048;-62
2022/03/24 13:25:29;;;;;;;;;;;;;;;;;;5093166;28;20032;-62
2022/03/24 13:27:56;;;;;;;39.22;32.28;;;;;;;;;;5091475;28;19976;-62
2022/03/24 13:30:24;;;;;;;41.63;33.75;;;;;;;;;;5092343;28;20043;-62
2022/03/24 13:32:52;;;;;;;44.70;35.80;;;;;;;;;;5094472;28;20055;-63
2022/03/24 13:35:19;;;;;;;41.47;33.03;;;;;;;;;;5101112;28;20044;-62
2022/03/24 13:37:48;;;;;;;43.35;34.60;;;;;;;;;;5103424;28;20054;-62
2022/03/24 13:40:16;;;;;;;50.75;37.95;;;;;;;;;;5098436;28;20075;-62
2022/03/24 13:42:43;;;;;;;46.08;36.47;;;;;;;;;;5097741;28;20121;-62
2022/03/24 13:45:10;;;;;;;46.72;38.10;;;;;;;;;;5106795;28;20040;-62
2022/03/24 13:47:40;;;;;;;44.13;37.00;;;;;;;;;;5099399;28;20044;-62
2022/03/24 13:50:06;;;;;;;46.72;38.05;;;;;;;;;;5095172;28;20067;-63
2022/03/24 13:52:34;;;;;;;46.28;38.75;;;;;;;;;;5098880;28;20069;-64
2022/03/24 13:55:11;;;;;;;49.33;39.45;;;;;;;;;;5097872;28;20041;-61
2022/03/24 13:57:47;;;;;;;48.60;38.25;;;;;;;;;;5097201;28;20396;-63
2022/03/24 14:00:33;;;;;;;48.47;39.33;;;;;;;;;;5090390;28;20045;-62
2022/03/24 14:03:10;;;;;;;47.80;40.25;;;;;;;;;;5091773;28;20036;-62
2022/03/24 14:05:46;;;;;;;49.40;37.72;;;;;;;;;;5084060;28;20101;-63
2022/03/24 14:08:16;;;;;;;49.83;35.03;;;;;;;;;;5104510;28;20059;-62
2022/03/24 14:11:05;;;;;;;52.20;38.08;;;;;;;;;;5096206;28;20075;-63
2022/03/24 14:13:34;;;;;;;52.72;40.10;;;;;;;;;;5092674;28;20053;-62
2022/03/24 14:16:28;;;;;;;51.10;39.10;;;;;;;;;;5100555;28;20043;-62
2022/03/24 14:19:15;;;;;;;48.60;36.63;;;;;;;;;;5097754;28;20286;-63
2022/03/24 14:22:02;;;;;;;46.63;37.47;;;;;;;;;;5095351;28;20055;-62
2022/03/24 14:24:35;;;;;;;47.65;36.60;;;;;;;;;;5092063;28;20062;-63
2022/03/24 14:27:11;;;;;;;49.03;37.30;;;;;;;;;;5087379;28;20050;-62